Time;durP1;ratioP1;P1;durP2;ratioP2;P2;SDS_P1;SDS_P2;PMS_P1;PMS_P2;Temp;Humidity;BMP_temperature;BMP_pressure;BME280_temperature;BME280_humidity;BME280_pressure;Samples;Min_cycle;Max_cycle;Signal;HPM_P1;HPM_P2
2023/10/02 00:00:40;;;;;;;1999.90;999.90;;;18.60;99.90;;;;;;5088321;28;20923;-73
2023/10/02 00:03:09;;;;;;;1999.90;999.90;;;18.60;99.90;;;;;;5100930;28;20426;-73
2023/10/02 00:05:50;;;;;;;1999.90;999.90;;;18.70;99.90;;;;;;5096090;28;20437;-74
2023/10/02 00:08:31;;;;;;;1999.90;999.90;;;18.40;99.90;;;;;;5088576;28;20433;-72
2023/10/02 00:11:05;;;;;;;1999.90;999.90;;;18.30;99.90;;;;;;5087662;28;20509;-73
2023/10/02 00:13:32;;;;;;;1999.90;999.90;;;18.30;99.90;;;;;;5087492;28;20911;-72
2023/10/02 00:15:59;;;;;;;1999.90;999.90;;;18.20;99.90;;;;;;5100077;28;20439;-73
2023/10/02 00:18:28;;;;;;;1999.90;999.90;;;18.10;99.90;;;;;;5093089;28;20479;-73
2023/10/02 00:21:17;;;;;;;1999.90;999.90;;;18.10;99.90;;;;;;5086635;28;20429;-74
2023/10/02 00:23:59;;;;;;;1999.90;999.90;;;18.10;99.90;;;;;;5091674;28;20486;-73
2023/10/02 00:26:26;;;;;;;1999.90;999.90;;;18.10;99.90;;;;;;5095308;28;20430;-73
2023/10/02 00:28:57;;;;;;;1999.90;999.90;;;18.00;99.90;;;;;;5098372;28;20471;-73
2023/10/02 00:31:35;;;;;;;1999.90;999.90;;;17.80;99.90;;;;;;5098117;28;20865;-73
2023/10/02 00:34:03;;;;;;;1999.90;999.90;;;17.80;99.90;;;;;;5086831;28;20436;-73
2023/10/02 00:36:30;;;;;;;1999.90;999.90;;;17.80;99.90;;;;;;5087815;28;20429;-74
2023/10/02 00:39:24;;;;;;;1999.90;999.90;;;17.70;99.90;;;;;;5094523;28;20804;-73
2023/10/02 00:42:10;;;;;;;1999.90;999.90;;;17.70;99.90;;;;;;5097029;28;20455;-74
2023/10/02 00:47:35;;;;;;;1999.90;999.90;;;17.60;99.90;;;;;;5086639;28;20535;-73
2023/10/02 00:50:11;;;;;;;1999.90;999.90;;;17.70;99.90;;;;;;5086540;28;20426;-73
2023/10/02 00:52:41;;;;;;;1999.90;999.90;;;17.70;99.90;;;;;;5093052;28;20420;-73
2023/10/02 00:55:13;;;;;;;1999.90;999.90;;;17.80;99.90;;;;;;5100283;28;20422;-73
2023/10/02 00:57:41;;;;;;;1999.90;999.90;;;17.70;99.90;;;;;;5096404;28;20435;-73
2023/10/02 01:00:20;;;;;;;1999.90;999.90;;;17.70;99.90;;;;;;5087049;28;20437;-73
2023/10/02 01:02:49;;;;;;;1999.90;999.90;;;17.60;99.90;;;;;;5086635;28;20858;-73
2023/10/02 01:05:16;;;;;;;1999.90;999.90;;;17.50;99.90;;;;;;5086787;28;20437;-73
2023/10/02 01:07:46;;;;;;;1999.90;999.90;;;17.40;99.90;;;;;;5095105;28;20490;-73
2023/10/02 01:10:18;;;;;;;1999.90;999.90;;;17.40;99.90;;;;;;5097765;28;20509;-73
2023/10/02 01:12:50;;;;;;;1999.90;999.90;;;17.30;99.90;;;;;;5092060;28;20900;-73
2023/10/02 01:15:20;;;;;;;1999.90;999.90;;;17.40;99.90;;;;;;5089027;28;20409;-73
2023/10/02 01:17:49;;;;;;;1999.90;999.90;;;17.30;99.90;;;;;;5090629;28;20431;-73
2023/10/02 01:20:28;;;;;;;1999.90;999.90;;;17.30;99.90;;;;;;5101428;28;20450;-73
2023/10/02 01:23:11;;;;;;;1999.90;999.90;;;17.20;99.90;;;;;;5103564;28;20493;-73
2023/10/02 01:25:42;;;;;;;1999.90;999.90;;;17.70;99.90;;;;;;5089460;28;20923;-74
2023/10/02 01:28:13;;;;;;;1999.90;999.90;;;17.10;99.90;;;;;;5094800;28;20935;-73
2023/10/02 01:30:42;;;;;;;1999.90;999.90;;;17.00;99.90;;;;;;5091497;28;20422;-73
2023/10/02 01:33:17;;;;;;;1999.90;999.90;;;17.00;99.90;;;;;;5094048;28;20429;-73
2023/10/02 01:35:49;;;;;;;1999.90;999.90;;;16.80;99.90;;;;;;5100046;28;20492;-73
2023/10/02 01:38:18;;;;;;;1999.90;999.90;;;16.80;99.90;;;;;;5092200;28;20424;-73
2023/10/02 01:40:49;;;;;;;1999.90;999.90;;;16.80;99.90;;;;;;5091755;28;21113;-73
2023/10/02 01:43:19;;;;;;;1999.90;999.90;;;16.80;99.90;;;;;;5091655;28;20433;-73
2023/10/02 01:45:48;;;;;;;1999.90;999.90;;;16.70;99.90;;;;;;5090396;28;20431;-73
2023/10/02 01:48:36;;;;;;;1999.90;999.90;;;16.70;99.90;;;;;;5104116;28;20444;-74
2023/10/02 01:51:15;;;;;;;1999.90;999.90;;;16.60;99.90;;;;;;5089388;28;20429;-73
2023/10/02 01:53:43;;;;;;;1999.90;999.90;;;16.60;99.90;;;;;;5087778;28;20535;-73
2023/10/02 01:56:12;;;;;;;1999.90;999.90;;;16.60;99.90;;;;;;5090947;28;21137;-73
2023/10/02 01:58:40;;;;;;;1999.90;999.90;;;16.60;99.90;;;;;;5090120;28;20933;-73
2023/10/02 02:01:09;;;;;;;1999.90;999.90;;;16.50;99.90;;;;;;5104304;28;20974;-73
2023/10/02 02:03:37;;;;;;;1999.90;999.90;;;16.50;99.90;;;;;;5094276;28;20430;-73
2023/10/02 02:06:08;;;;;;;1999.90;999.90;;;16.40;99.90;;;;;;5091172;28;20440;-73
2023/10/02 02:08:36;;;;;;;1999.90;999.90;;;16.40;99.90;;;;;;5090978;28;20426;-73
2023/10/02 02:13:50;;;;;;;1999.90;999.90;;;16.50;99.90;;;;;;5094422;28;20412;-73
2023/10/02 02:16:25;;;;;;;1999.90;999.90;;;16.40;99.90;;;;;;5084477;28;20430;-73
2023/10/02 02:18:54;;;;;;;1999.90;999.90;;;16.40;99.90;;;;;;5090585;28;20868;-73
2023/10/02 02:21:24;;;;;;;1999.90;999.90;;;16.40;99.90;;;;;;5090441;28;20426;-73
2023/10/02 02:24:03;;;;;;;1999.90;999.90;;;16.40;99.90;;;;;;5089669;28;20456;-73
2023/10/02 02:26:31;;;;;;;1999.90;999.90;;;16.30;99.90;;;;;;5088490;28;20918;-74
2023/10/02 02:28:59;;;;;;;1999.90;999.90;;;16.30;99.90;;;;;;5090317;28;20827;-73
2023/10/02 02:31:32;;;;;;;1999.90;999.90;;;16.40;99.90;;;;;;5090159;28;20803;-73
2023/10/02 02:34:02;;;;;;;1999.90;999.90;;;16.30;99.90;;;;;;5089238;28;20437;-73
2023/10/02 02:36:34;;;;;;;1999.90;999.90;;;16.30;99.90;;;;;;5089209;28;20422;-73
2023/10/02 02:41:47;;;;;;;1999.90;999.90;;;16.30;99.90;;;;;;5095526;28;20416;-74
2023/10/02 02:47:07;;;;;;;1999.90;999.90;;;16.30;99.90;;;;;;5087889;28;20494;-74
2023/10/02 02:49:48;;;;;;;1999.90;999.90;;;16.20;99.90;;;;;;5092633;28;21277;-73
2023/10/02 02:52:17;;;;;;;1999.90;999.90;;;16.30;99.90;;;;;;5093582;28;20473;-73
2023/10/02 02:54:47;;;;;;;1999.90;999.90;;;16.20;99.90;;;;;;5088763;28;20475;-73
2023/10/02 02:57:15;;;;;;;1999.90;999.90;;;16.10;99.90;;;;;;5104560;28;20435;-73
2023/10/02 02:59:44;;;;;;;1999.90;999.90;;;16.10;99.90;;;;;;5090466;28;20437;-73
2023/10/02 03:02:21;;;;;;;1999.90;999.90;;;16.00;99.90;;;;;;5090591;28;20436;-73
2023/10/02 03:04:50;;;;;;;1999.90;999.90;;;16.00;99.90;;;;;;5089766;28;20482;-73
2023/10/02 03:07:29;;;;;;;1999.90;999.90;;;16.10;99.90;;;;;;5089908;28;20508;-73
2023/10/02 03:09:58;;;;;;;1999.90;999.90;;;16.20;99.90;;;;;;5103399;28;20507;-73
2023/10/02 03:12:27;;;;;;;1999.90;999.90;;;16.20;99.90;;;;;;5090147;28;20433;-73
2023/10/02 03:14:55;;;;;;;1999.90;999.90;;;16.10;99.90;;;;;;5089597;28;20915;-73
2023/10/02 03:17:29;;;;;;;1999.90;999.90;;;16.50;99.90;;;;;;5089848;28;20433;-73
2023/10/02 03:19:57;;;;;;;1999.90;999.90;;;16.10;99.90;;;;;;5089578;28;20950;-73
2023/10/02 03:22:27;;;;;;;1999.90;999.90;;;16.00;99.90;;;;;;5100992;28;20459;-73
2023/10/02 03:24:57;;;;;;;1999.90;999.90;;;15.90;99.90;;;;;;5092026;28;20430;-74
2023/10/02 03:27:24;;;;;;;1999.90;999.90;;;16.00;99.90;;;;;;5088788;28;20418;-73
2023/10/02 03:29:51;;;;;;;1999.90;999.90;;;16.10;99.90;;;;;;5093051;28;20438;-74
2023/10/02 03:32:20;;;;;;;1999.90;999.90;;;16.00;99.90;;;;;;5083479;28;20430;-73
2023/10/02 03:35:02;;;;;;;1999.90;999.90;;;15.90;99.90;;;;;;5088380;28;20483;-73
2023/10/02 03:37:29;;;;;;;1999.90;999.90;;;15.80;99.90;;;;;;5084102;28;20433;-73
2023/10/02 03:40:13;;;;;;;1999.90;999.90;;;15.90;99.90;;;;;;5089096;28;20444;-73
2023/10/02 03:42:40;;;;;;;1999.90;999.90;;;15.80;99.90;;;;;;5084954;28;20462;-73
2023/10/02 03:45:08;;;;;;;1999.90;999.90;;;15.90;99.90;;;;;;5088722;28;20434;-73
2023/10/02 03:47:37;;;;;;;1999.90;999.90;;;15.80;99.90;;;;;;5089440;28;20433;-73
2023/10/02 03:50:10;;;;;;;1999.90;999.90;;;15.70;99.90;;;;;;5096844;28;20427;-73
2023/10/02 03:52:37;;;;;;;1999.90;999.90;;;15.70;99.90;;;;;;5089274;28;20508;-73
2023/10/02 03:55:16;;;;;;;1999.90;999.90;;;15.60;99.90;;;;;;5088882;28;20426;-73
2023/10/02 03:57:49;;;;;;;1999.90;999.90;;;15.70;99.90;;;;;;5088415;28;20421;-73
2023/10/02 04:00:18;;;;;;;1999.90;999.90;;;15.80;99.90;;;;;;5099596;28;20487;-73
2023/10/02 04:02:48;;;;;;;1999.90;999.90;;;15.90;99.90;;;;;;5087180;28;20434;-73
2023/10/02 04:05:30;;;;;;;1999.90;999.90;;;15.90;99.90;;;;;;5088689;28;20429;-73
2023/10/02 04:08:21;;;;;;;1999.90;999.90;;;15.80;99.90;;;;;;5089132;28;20426;-73
2023/10/02 04:11:03;;;;;;;1999.90;999.90;;;15.60;99.90;;;;;;5084610;28;20438;-73
2023/10/02 04:13:33;;;;;;;1999.90;999.90;;;15.40;99.90;;;;;;5086553;28;20512;-73
2023/10/02 04:18:49;;;;;;;1999.90;999.90;;;15.20;99.90;;;;;;5088316;28;21062;-73
2023/10/02 04:21:19;;;;;;;1999.90;999.90;;;15.30;99.90;;;;;;5088268;28;20488;-73
2023/10/02 04:23:46;;;;;;;1999.90;999.90;;;15.30;99.90;;;;;;5088550;28;20421;-73
2023/10/02 04:26:19;;;;;;;1999.90;999.90;;;15.30;99.90;;;;;;5088173;28;20434;-73
2023/10/02 04:28:55;;;;;;;1999.90;999.90;;;15.30;99.90;;;;;;5088847;28;20422;-73
2023/10/02 04:31:22;;;;;;;1999.90;999.90;;;15.30;99.90;;;;;;5087382;28;20911;-73
2023/10/02 04:34:14;;;;;;;1999.90;999.90;;;15.30;99.90;;;;;;5087659;28;20571;-73
2023/10/02 04:36:41;;;;;;;1999.90;999.90;;;15.30;99.90;;;;;;5085338;28;20479;-73
2023/10/02 04:39:41;;;;;;;1999.90;999.90;;;15.30;99.90;;;;;;5087917;28;20577;-73
2023/10/02 04:42:15;;;;;;;1999.90;999.90;;;15.30;99.90;;;;;;5087474;28;20430;-73
2023/10/02 04:44:45;;;;;;;1999.90;999.90;;;15.30;99.90;;;;;;5087809;28;20557;-73
2023/10/02 04:47:17;;;;;;;1999.90;999.90;;;15.10;99.90;;;;;;5088139;28;20426;-73
2023/10/02 04:50:34;;;;;;;1999.90;999.90;;;15.10;99.90;;;;;;5088127;28;20456;-74
2023/10/02 04:52:55;;;;;;;1999.90;999.90;;;15.00;99.90;;;;;;5083362;28;20532;-73
2023/10/02 04:55:24;;;;;;;1999.90;999.90;;;15.00;99.90;;;;;;5087125;28;20414;-74
2023/10/02 04:57:52;;;;;;;1999.90;999.90;;;15.00;99.90;;;;;;5086504;28;20434;-73
2023/10/02 05:00:32;;;;;;;1999.90;999.90;;;15.00;99.90;;;;;;5088308;28;20430;-73
2023/10/02 05:05:48;;;;;;;1999.90;999.90;;;15.10;99.90;;;;;;5083883;28;20425;-74
2023/10/02 05:08:19;;;;;;;1999.90;999.90;;;15.20;99.90;;;;;;5088516;28;20453;-73
2023/10/02 05:10:49;;;;;;;1999.90;999.90;;;15.30;99.90;;;;;;5087266;28;20505;-73
2023/10/02 05:13:44;;;;;;;1999.90;999.90;;;15.30;99.90;;;;;;5088344;28;20522;-73
2023/10/02 05:16:12;;;;;;;1999.90;999.90;;;15.30;99.90;;;;;;5088180;28;20954;-73
2023/10/02 05:18:44;;;;;;;1999.90;999.90;;;15.30;99.90;;;;;;5088894;28;20535;-73
2023/10/02 05:21:16;;;;;;;1999.90;999.90;;;15.30;99.90;;;;;;5089144;28;20430;-71
2023/10/02 05:23:56;;;;;;;1999.90;999.90;;;15.30;99.90;;;;;;5089027;28;20438;-73
2023/10/02 05:26:32;;;;;;;1999.90;999.90;;;15.30;99.90;;;;;;5088704;28;20437;-72
2023/10/02 05:29:00;;;;;;;1999.90;999.90;;;15.40;99.90;;;;;;5089358;28;20951;-73
2023/10/02 05:31:27;;;;;;;1999.90;999.90;;;15.30;99.90;;;;;;5087916;28;20456;-73
2023/10/02 05:33:57;;;;;;;1999.90;999.90;;;15.90;99.90;;;;;;5086883;28;20524;-75
2023/10/02 05:36:28;;;;;;;1999.90;999.90;;;15.30;99.90;;;;;;5079853;28;20433;-73
2023/10/02 05:41:47;;;;;;;1999.90;999.90;;;15.30;99.90;;;;;;5088841;28;20526;-73
2023/10/02 05:44:20;;;;;;;1999.90;999.90;;;15.40;99.90;;;;;;5089820;28;20447;-73
2023/10/02 05:46:57;;;;;;;1999.90;999.90;;;15.50;99.90;;;;;;5088814;28;20479;-74
2023/10/02 05:49:26;;;;;;;1999.90;999.90;;;15.50;99.90;;;;;;5089110;28;21347;-73
2023/10/02 05:51:56;;;;;;;1999.90;999.90;;;15.60;99.90;;;;;;5090732;28;20844;-72
2023/10/02 05:54:29;;;;;;;1999.90;999.90;;;15.60;99.90;;;;;;5089853;28;20422;-73
2023/10/02 05:57:08;;;;;;;1999.90;999.90;;;15.70;99.90;;;;;;5091527;28;20429;-73
2023/10/02 05:59:45;;;;;;;1999.90;999.90;;;15.80;99.90;;;;;;5086358;28;20434;-73
2023/10/02 06:02:12;;;;;;;1999.90;999.90;;;15.80;99.90;;;;;;5093113;28;20518;-73
2023/10/02 06:04:43;;;;;;;1999.90;999.90;;;15.90;99.90;;;;;;5092330;28;20934;-73
2023/10/02 06:07:12;;;;;;;1999.90;999.90;;;16.00;99.90;;;;;;5094214;28;20520;-73
2023/10/02 06:09:44;;;;;;;1999.90;999.90;;;16.00;99.90;;;;;;5092614;28;20911;-73
2023/10/02 06:12:12;;;;;;;1999.90;999.90;;;16.10;99.90;;;;;;5092391;28;20486;-73
2023/10/02 06:14:39;;;;;;;1999.90;999.90;;;16.20;99.90;;;;;;5092891;28;20422;-73
2023/10/02 06:17:11;;;;;;;1999.90;999.90;;;16.20;99.90;;;;;;5091083;28;20463;-73
2023/10/02 06:19:43;;;;;;;1999.90;999.90;;;16.30;99.90;;;;;;5094837;28;20505;-73
2023/10/02 06:22:14;;;;;;;1999.90;999.90;;;16.40;99.90;;;;;;5095034;28;20426;-73
2023/10/02 06:24:41;;;;;;;1999.90;999.90;;;16.60;99.90;;;;;;5090813;28;20426;-73
2023/10/02 06:27:13;;;;;;;1999.90;999.90;;;16.80;99.90;;;;;;5092110;28;20916;-73
2023/10/02 06:29:44;;;;;;;1999.90;999.90;;;16.90;99.90;;;;;;5092308;28;20430;-73
2023/10/02 06:32:19;;;;;;;1999.90;999.90;;;17.10;99.90;;;;;;5093939;28;20506;-74
2023/10/02 06:34:47;;;;;;;1999.90;999.90;;;17.30;99.90;;;;;;5090212;28;20429;-73
2023/10/02 06:37:18;;;;;;;1999.90;999.90;;;17.50;99.90;;;;;;5094655;28;20527;-73
2023/10/02 06:39:46;;;;;;;1999.90;999.90;;;17.70;99.90;;;;;;5093146;28;20430;-73
2023/10/02 06:42:17;;;;;;;1999.90;999.90;;;18.00;99.90;;;;;;5094668;28;20438;-73
2023/10/02 06:44:53;;;;;;;1999.90;999.90;;;18.20;99.90;;;;;;5094520;28;20429;-74
2023/10/02 06:47:23;;;;;;;1999.90;999.90;;;18.40;99.90;;;;;;5090334;28;20494;-72
2023/10/02 06:49:52;;;;;;;1999.90;999.90;;;18.60;99.90;;;;;;5093018;28;20946;-73
2023/10/02 06:52:21;;;;;;;1999.90;999.90;;;18.90;99.90;;;;;;5092796;28;20432;-73
2023/10/02 06:54:49;;;;;;;1999.90;999.90;;;19.10;99.90;;;;;;5092841;28;20417;-73
2023/10/02 06:57:18;;;;;;;1999.90;999.90;;;19.30;99.90;;;;;;5093627;28;20516;-72
2023/10/02 06:59:53;;;;;;;1999.90;999.90;;;19.70;99.90;;;;;;5095601;28;20839;-73
2023/10/02 07:02:21;;;;;;;1999.90;999.90;;;19.70;99.90;;;;;;5094034;28;20405;-73
2023/10/02 07:04:49;;;;;;;1999.90;999.90;;;20.00;99.90;;;;;;5092044;28;20425;-73
2023/10/02 07:07:20;;;;;;;1999.90;999.90;;;20.30;99.90;;;;;;5089093;28;20438;-73
2023/10/02 07:09:49;;;;;;;1999.90;999.90;;;20.50;99.90;;;;;;5092538;28;20426;-72
2023/10/02 07:12:16;;;;;;;1999.90;999.90;;;20.50;99.90;;;;;;5091364;28;20507;-72
2023/10/02 07:14:45;;;;;;;1999.90;999.90;;;20.70;99.90;;;;;;5088015;28;20437;-72
2023/10/02 07:17:18;;;;;;;1999.90;999.90;;;20.80;99.90;;;;;;5089135;28;20511;-73
2023/10/02 07:19:50;;;;;;;1999.90;999.90;;;21.00;99.90;;;;;;5088111;28;20433;-72
2023/10/02 07:22:18;;;;;;;1999.90;999.90;;;21.30;99.90;;;;;;5094639;28;20430;-72
2023/10/02 07:24:48;;;;;;;1999.90;999.90;;;21.20;99.90;;;;;;5092996;28;20600;-73
2023/10/02 07:27:25;;;;;;;1999.90;999.90;;;21.40;99.90;;;;;;5089567;28;20432;-75
2023/10/02 07:29:54;;;;;;;1999.90;999.90;;;21.70;99.90;;;;;;5093023;28;20950;-73
2023/10/02 07:32:22;;;;;;;1999.90;999.90;;;21.70;99.90;;;;;;5088330;28;20432;-72
2023/10/02 07:34:50;;;;;;;1999.90;999.90;;;21.80;99.90;;;;;;5087578;28;20430;-72
2023/10/02 07:37:21;;;;;;;1999.90;999.90;;;21.80;99.90;;;;;;5092565;28;20430;-72
2023/10/02 07:39:56;;;;;;;1999.90;999.90;;;22.10;99.90;;;;;;5085600;28;20426;-72
2023/10/02 07:42:24;;;;;;;1999.90;999.90;;;21.80;99.90;;;;;;5093139;28;20423;-74
2023/10/02 07:44:52;;;;;;;1999.90;999.90;;;21.80;99.90;;;;;;5088918;28;21109;-72
2023/10/02 07:47:20;;;;;;;1999.90;999.90;;;22.10;99.90;;;;;;5094968;28;20424;-72
2023/10/02 07:49:51;;;;;;;1999.90;999.90;;;22.10;99.90;;;;;;5091373;28;20607;-72
2023/10/02 07:52:29;;;;;;;1999.90;999.90;;;21.90;99.90;;;;;;5091053;28;20479;-73
2023/10/02 07:54:59;;;;;;;1999.90;999.90;;;21.70;99.90;;;;;;5092691;28;20543;-74
2023/10/02 07:57:30;;;;;;;1999.90;999.90;;;21.80;99.90;;;;;;5089739;28;20429;-72
2023/10/02 07:59:58;;;;;;;1999.90;999.90;;;22.10;99.90;;;;;;5090596;28;20434;-74
2023/10/02 08:02:30;;;;;;;1999.90;999.90;;;22.40;99.90;;;;;;5091858;28;20420;-74
2023/10/02 08:04:59;;;;;;;1999.90;999.90;;;22.60;99.90;;;;;;5087993;28;20528;-74
2023/10/02 08:07:26;;;;;;;1999.90;999.90;;;22.40;99.90;;;;;;5088866;28;20556;-73
2023/10/02 08:09:55;;;;;;;1999.90;999.90;;;22.20;99.90;;;;;;5088323;28;20971;-73
2023/10/02 08:12:34;;;;;;;1999.90;999.90;;;22.00;99.90;;;;;;5093735;28;20428;-76
2023/10/02 08:15:26;;;;;;;1999.90;999.90;;;22.20;99.90;;;;;;5092059;28;20433;-74
2023/10/02 08:18:03;;;;;;;1999.90;999.90;;;22.40;99.90;;;;;;5090919;28;20413;-75
2023/10/02 08:20:36;;;;;;;1999.90;999.90;;;22.70;99.90;;;;;;5094497;28;20408;-73
2023/10/02 08:23:21;;;;;;;1999.90;999.90;;;22.70;99.90;;;;;;5096610;28;20504;-72
2023/10/02 08:26:00;;;;;;;1999.90;999.90;;;22.60;99.90;;;;;;5085950;28;20457;-73
2023/10/02 08:28:30;;;;;;;1999.90;999.90;;;22.90;99.90;;;;;;5087081;28;20453;-73
2023/10/02 08:31:13;;;;;;;1999.90;999.90;;;23.00;99.90;;;;;;5090072;28;20931;-73
2023/10/02 08:33:43;;;;;;;1999.90;999.90;;;23.10;99.90;;;;;;5093716;28;20425;-72
2023/10/02 08:36:12;;;;;;;1999.90;999.90;;;23.10;99.90;;;;;;5095426;28;20483;-73
2023/10/02 08:38:40;;;;;;;1999.90;999.90;;;23.20;99.90;;;;;;5088975;28;20426;-71
2023/10/02 08:41:08;;;;;;;1999.90;999.90;;;23.50;99.90;;;;;;5084934;28;20505;-72
2023/10/02 08:43:41;;;;;;;1999.90;999.90;;;23.50;99.90;;;;;;5091114;28;20516;-72
2023/10/02 08:46:18;;;;;;;1999.90;999.90;;;23.70;99.90;;;;;;5088576;28;20433;-72
2023/10/02 08:48:47;;;;;;;1999.90;999.90;;;24.00;99.90;;;;;;5091440;28;20508;-69
2023/10/02 08:51:28;;;;;;;1999.90;999.90;;;24.10;99.90;;;;;;5084208;28;20437;-71
2023/10/02 08:53:57;;;;;;;1999.90;999.90;;;24.40;99.90;;;;;;5087349;28;20434;-75
2023/10/02 08:56:26;;;;;;;1999.90;999.90;;;24.20;99.90;;;;;;5093931;28;20545;-74
2023/10/02 09:01:34;;;;;;;1999.90;999.90;;;24.40;99.90;;;;;;5087578;28;20477;-73
2023/10/02 09:07:14;;;;;;;1999.90;999.90;;;24.50;99.90;;;;;;5098994;27;20469;-73
2023/10/02 09:09:45;;;;;;;1999.90;999.90;;;24.70;99.90;;;;;;5086133;28;20492;-72
2023/10/02 09:12:15;;;;;;;1999.90;999.90;;;24.40;99.90;;;;;;5082896;28;21097;-71
2023/10/02 09:14:42;;;;;;;1999.90;999.90;;;24.60;99.90;;;;;;5079610;28;20435;-72
2023/10/02 09:17:20;;;;;;;1999.90;999.90;;;25.10;99.90;;;;;;5093197;28;20437;-73
2023/10/02 09:20:04;;;;;;;1999.90;999.90;;;25.20;99.90;;;;;;5093738;28;20468;-72
2023/10/02 09:22:37;;;;;;;1999.90;999.90;;;25.10;99.90;;;;;;5085335;28;20847;-72
2023/10/02 09:25:12;;;;;;;1999.90;999.90;;;24.90;99.90;;;;;;5087515;28;20537;-72
2023/10/02 09:27:54;;;;;;;1999.90;999.90;;;24.80;99.90;;;;;;5089941;28;20522;-72
2023/10/02 09:30:36;;;;;;;1999.90;999.90;;;24.90;99.90;;;;;;5080888;28;20465;-72
2023/10/02 09:33:07;;;;;;;1999.90;999.90;;;25.00;99.90;;;;;;5084592;28;20500;-72
2023/10/02 09:35:39;;;;;;;1999.90;999.90;;;24.80;99.90;;;;;;5084398;28;20536;-74
2023/10/02 09:38:10;;;;;;;1999.90;999.90;;;24.90;99.90;;;;;;5086528;28;20538;-72
2023/10/02 09:40:58;;;;;;;1999.90;999.90;;;24.90;99.90;;;;;;5094714;28;20416;-71
2023/10/02 09:43:27;;;;;;;1999.90;999.90;;;25.60;99.90;;;;;;5088369;28;20436;-72
2023/10/02 09:45:55;;;;;;;1999.90;999.90;;;25.30;99.90;;;;;;5088811;28;20518;-72
2023/10/02 09:48:52;;;;;;;1999.90;999.90;;;25.40;99.90;;;;;;5086365;28;20449;-71
2023/10/02 09:51:26;;;;;;;1999.90;999.90;;;25.20;99.90;;;;;;5089383;28;20425;-72
2023/10/02 09:54:05;;;;;;;1999.90;999.90;;;25.10;99.90;;;;;;5084854;28;20437;-72
2023/10/02 09:56:51;;;;;;;1999.90;999.90;;;24.90;99.90;;;;;;5087148;28;20421;-72
2023/10/02 09:59:21;;;;;;;1999.90;999.90;;;24.70;99.90;;;;;;5086537;28;20800;-73
2023/10/02 10:05:46;;;;;;;1999.90;999.90;;;25.00;99.90;;;;;;5086301;28;20451;-72
2023/10/02 10:08:27;;;;;;;1999.90;999.90;;;25.40;99.90;;;;;;5085396;28;20454;-72
2023/10/02 10:11:10;;;;;;;1999.90;999.90;;;25.70;99.90;;;;;;5085111;28;20421;-72
2023/10/02 10:13:37;;;;;;;1999.90;999.90;;;26.00;99.90;;;;;;5085462;28;20442;-72
2023/10/02 10:16:35;;;;;;;1999.90;999.90;;;26.30;99.90;;;;;;5094817;28;20438;-71
2023/10/02 10:19:33;;;;;;;1999.90;999.90;;;26.20;99.90;;;;;;5078787;28;20535;-72
2023/10/02 10:22:00;;;;;;;1999.90;999.90;;;26.30;99.90;;;;;;5081168;28;20521;-73
2023/10/02 10:24:51;;;;;;;1999.90;999.90;;;26.00;99.90;;;;;;5078121;28;21074;-71
2023/10/02 10:27:54;;;;;;;1999.90;999.90;;;26.00;99.90;;;;;;5083487;28;20429;-72
2023/10/02 10:30:39;;;;;;;1999.90;999.90;;;26.10;99.90;;;;;;5076506;28;20475;-72
2023/10/02 10:33:45;;;;;;;1999.90;999.90;;;26.40;99.90;;;;;;5081889;28;20415;-72
2023/10/02 10:36:36;;;;;;;1999.90;999.90;;;26.40;99.90;;;;;;5078181;28;20424;-71
2023/10/02 10:42:01;;;;;;;1999.90;999.90;;;26.60;99.90;;;;;;5052528;28;20419;-73
2023/10/02 10:44:33;;;;;;;1999.90;999.90;;;26.80;99.90;;;;;;5064970;28;20431;-73
2023/10/02 10:47:03;;;;;;;1999.90;999.90;;;26.80;99.90;;;;;;5074144;28;20423;-71
2023/10/02 10:49:53;;;;;;;1999.90;999.90;;;27.20;99.90;;;;;;5074916;28;20501;-72
2023/10/02 10:52:34;;;;;;;1999.90;999.90;;;27.60;99.90;;;;;;5081263;28;20426;-71
2023/10/02 10:55:04;;;;;;;1999.90;999.90;;;28.10;99.90;;;;;;5073321;28;20493;-72
2023/10/02 10:57:49;;;;;;;1999.90;999.90;;;27.80;99.50;;;;;;5066162;28;20432;-71
2023/10/02 11:00:24;;;;;;;1999.90;999.90;;;27.90;98.90;;;;;;5075070;28;20912;-73
2023/10/02 11:02:57;;;;;;;1999.90;999.90;;;27.60;98.60;;;;;;5069010;28;21605;-73
2023/10/02 11:05:24;;;;;;;1999.90;999.90;;;27.40;99.30;;;;;;5075095;28;20483;-73
2023/10/02 11:07:52;;;;;;;1999.90;999.90;;;27.30;98.90;;;;;;5079800;28;20416;-73
2023/10/02 11:10:25;;;;;;;1999.90;999.90;;;27.20;99.80;;;;;;5091399;28;20441;-73
2023/10/02 11:12:56;;;;;;;1999.90;999.90;;;27.30;99.90;;;;;;5083376;28;20504;-75
2023/10/02 11:18:26;;;;;;;1999.90;999.90;;;27.10;98.90;;;;;;5095730;27;20385;-72
2023/10/02 11:20:57;;;;;;;1999.90;999.90;;;27.10;99.10;;;;;;5099413;28;20428;-74
2023/10/02 11:23:37;;;;;;;1999.90;999.90;;;27.00;99.60;;;;;;5101334;28;20429;-72
2023/10/02 11:26:10;;;;;;;1999.90;999.90;;;27.10;99.50;;;;;;5099105;28;20439;-73
2023/10/02 11:28:38;;;;;;;1999.90;999.90;;;27.20;99.80;;;;;;5096712;28;20556;-73
2023/10/02 11:31:29;;;;;;;1999.90;999.90;;;27.40;99.00;;;;;;5099159;28;20931;-73
2023/10/02 11:34:08;;;;;;;1999.90;999.90;;;27.30;99.20;;;;;;5093985;28;20449;-73
2023/10/02 11:36:38;;;;;;;1999.90;999.90;;;26.90;99.60;;;;;;5087656;28;21091;-74
2023/10/02 11:39:09;;;;;;;1999.90;999.90;;;27.00;99.90;;;;;;5101333;28;20422;-71
2023/10/02 11:41:37;;;;;;;1999.90;999.90;;;27.40;99.90;;;;;;5087354;28;20422;-72
2023/10/02 11:44:06;;;;;;;1999.90;999.90;;;27.80;99.90;;;;;;5086930;28;20498;-72
2023/10/02 11:46:33;;;;;;;1999.90;999.90;;;28.10;98.70;;;;;;5089444;28;20474;-71
2023/10/02 11:49:00;;;;;;;1999.90;999.90;;;28.50;98.20;;;;;;5101671;28;20416;-72
2023/10/02 11:51:29;;;;;;;1999.90;999.90;;;28.00;97.40;;;;;;5087178;28;20411;-72
2023/10/02 11:53:57;;;;;;;1999.90;999.90;;;28.00;97.10;;;;;;5086988;28;20407;-70
2023/10/02 11:56:25;;;;;;;1999.90;999.90;;;28.00;97.30;;;;;;5087073;28;20402;-72
2023/10/02 11:58:52;;;;;;;1999.90;999.90;;;28.10;97.20;;;;;;5101754;28;20522;-72
2023/10/02 12:01:19;;;;;;;1999.90;999.90;;;28.30;97.60;;;;;;5086821;28;20453;-72
2023/10/02 12:03:46;;;;;;;1999.90;999.90;;;28.30;97.30;;;;;;5086930;28;20407;-72
2023/10/02 12:06:14;;;;;;;1999.90;999.90;;;28.30;96.90;;;;;;5086457;28;20418;-72
2023/10/02 12:08:44;;;;;;;1999.90;999.90;;;28.50;96.80;;;;;;5098610;28;20459;-72
2023/10/02 12:11:12;;;;;;;1999.90;999.90;;;28.60;96.80;;;;;;5096958;28;20489;-72
2023/10/02 12:13:38;;;;;;;1999.90;999.90;;;28.80;95.60;;;;;;5098820;28;20440;-71
2023/10/02 12:16:07;;;;;;;1999.90;999.90;;;28.50;96.60;;;;;;5091607;28;21146;-72
2023/10/02 12:18:35;;;;;;;1999.90;999.90;;;28.60;96.10;;;;;;5115979;28;20453;-72
2023/10/02 12:21:01;;;;;;;1999.90;999.90;;;28.60;95.70;;;;;;5114232;28;20441;-72
2023/10/02 12:23:29;;;;;;;1999.90;999.90;;;28.80;95.70;;;;;;5114239;28;20424;-72
2023/10/02 12:25:58;;;;;;;1999.90;999.90;;;28.90;95.80;;;;;;5117107;28;20439;-74
2023/10/02 12:28:26;;;;;;;1999.90;999.90;;;29.10;96.00;;;;;;5113388;28;20424;-72
2023/10/02 12:30:53;;;;;;;1999.90;999.90;;;29.20;94.80;;;;;;5106364;27;20435;-73
2023/10/02 12:33:20;;;;;;;1999.90;999.90;;;29.20;95.00;;;;;;5107999;28;20528;-72
2023/10/02 12:35:47;;;;;;;1999.90;999.90;;;28.90;94.60;;;;;;5099338;28;20942;-71
2023/10/02 12:38:14;;;;;;;1999.90;999.90;;;28.50;95.40;;;;;;5098405;28;20489;-72
2023/10/02 12:40:41;;;;;;;1999.90;999.90;;;28.50;94.90;;;;;;5102733;28;20435;-72
2023/10/02 12:43:09;;;;;;;1999.90;999.90;;;28.70;95.30;;;;;;5106855;28;20926;-72
2023/10/02 12:45:36;;;;;;;1999.90;999.90;;;28.60;94.70;;;;;;5105701;28;20468;-73
2023/10/02 12:48:07;;;;;;;1999.90;999.90;;;28.60;94.70;;;;;;5100836;28;20423;-72
2023/10/02 12:50:38;;;;;;;1999.90;999.90;;;28.60;94.20;;;;;;5101783;28;20428;-73
2023/10/02 12:53:05;;;;;;;1999.90;999.90;;;28.70;94.40;;;;;;5107234;28;20917;-73
2023/10/02 12:55:34;;;;;;;1999.90;999.90;;;29.10;94.50;;;;;;5104476;28;20917;-73
2023/10/02 12:58:03;;;;;;;1999.90;999.90;;;28.80;95.00;;;;;;5108349;28;20914;-73
2023/10/02 13:00:33;;;;;;;1999.90;999.90;;;28.20;94.10;;;;;;5097518;28;20424;-72